Time;durP1;ratioP1;P1;durP2;ratioP2;P2;SDS_P1;SDS_P2;PMS_P1;PMS_P2;Temp;Humidity;BMP_temperature;BMP_pressure;BME280_temperature;BME280_humidity;BME280_pressure;Samples;Min_cycle;Max_cycle;Signal;HPM_P1;HPM_P2
2022/05/30 00:01:46;;;;;;;3.27;2.30;;;9.40;68.50;;;9.98;54.42;97056.84;5029830;28;20072;-46
2022/05/30 00:04:14;;;;;;;3.47;2.30;;;9.40;68.60;;;9.96;54.26;97052.69;5029322;28;20057;-44
2022/05/30 00:06:42;;;;;;;2.40;2.10;;;9.40;68.80;;;9.95;54.21;97061.66;5026486;28;20278;-46
2022/05/30 00:09:13;;;;;;;2.20;2.00;;;9.40;68.90;;;9.89;54.60;97052.56;5029565;28;20053;-44
2022/05/30 00:11:41;;;;;;;4.53;2.50;;;9.30;69.50;;;9.80;54.84;97057.03;5029190;28;20045;-46
2022/05/30 00:14:09;;;;;;;3.20;2.10;;;9.10;70.10;;;9.80;54.67;97056.22;5029691;28;20236;-46
2022/05/30 00:16:37;;;;;;;3.47;2.10;;;9.20;69.80;;;9.82;54.71;97046.25;5029693;28;20256;-44
2022/05/30 00:19:05;;;;;;;5.47;2.30;;;9.20;69.30;;;9.81;54.70;97047.25;5030141;28;20053;-47
2022/05/30 00:21:33;;;;;;;3.77;2.40;;;9.20;69.20;;;9.81;54.63;97044.59;5030309;28;20417;-45
2022/05/30 00:24:01;;;;;;;2.97;2.43;;;9.20;69.00;;;9.83;54.68;97042.59;5029175;28;20267;-45
2022/05/30 00:26:29;;;;;;;4.23;2.20;;;9.30;68.80;;;9.86;54.42;97040.41;5029712;28;20053;-44
2022/05/30 00:28:56;;;;;;;5.00;2.80;;;9.40;68.50;;;9.90;54.60;97035.56;5028462;28;20046;-45
2022/05/30 00:31:24;;;;;;;3.50;2.37;;;9.40;68.30;;;9.89;54.48;97027.75;5027303;28;20063;-45
2022/05/30 00:33:52;;;;;;;3.93;2.20;;;9.40;68.60;;;9.83;54.47;97024.81;5027949;28;20049;-46
2022/05/30 00:36:20;;;;;;;2.73;2.27;;;9.30;68.90;;;9.82;54.54;97030.28;5029299;28;20050;-45
2022/05/30 00:38:49;;;;;;;3.77;2.40;;;9.20;68.90;;;9.79;54.62;97028.81;5026361;28;20256;-44
2022/05/30 00:41:18;;;;;;;4.43;2.80;;;9.20;69.00;;;9.77;54.66;97025.50;5029992;28;20048;-45
2022/05/30 00:43:46;;;;;;;5.53;2.57;;;9.20;69.40;;;9.75;54.73;97021.34;5027759;28;20045;-44
2022/05/30 00:46:16;;;;;;;4.50;2.97;;;9.20;69.40;;;9.71;54.92;97020.84;5029124;28;20057;-44
2022/05/30 00:48:59;;;;;;;3.90;2.53;;;9.10;69.50;;;9.68;54.82;97023.03;5027597;28;20049;-48
2022/05/30 00:51:37;;;;;;;4.50;2.60;;;9.10;70.10;;;9.66;54.91;97023.22;5043543;28;20065;-44
2022/05/30 00:54:10;;;;;;;3.87;3.00;;;9.10;69.80;;;9.68;54.68;97020.38;5027987;28;20049;-45
2022/05/30 00:56:43;;;;;;;4.97;2.20;;;9.10;69.40;;;9.67;54.77;97022.19;5028237;28;20052;-44
2022/05/30 00:59:13;;;;;;;4.03;2.65;;;9.10;69.10;;;9.62;54.79;97016.56;5010637;28;20057;-46
2022/05/30 01:01:41;;;;;;;3.90;2.10;;;9.00;69.10;;;9.59;54.46;97015.06;5025866;28;20053;-47
2022/05/30 01:07:01;;;;;;;5.13;2.63;;;8.90;69.20;;;9.54;54.53;97008.59;5028787;28;20063;-44
2022/05/30 01:09:35;;;;;;;5.60;2.83;;;8.90;69.30;;;9.50;54.78;96999.31;5027093;28;20065;-46
2022/05/30 01:12:10;;;;;;;7.47;3.03;;;8.80;69.90;;;9.44;55.22;97000.81;5028329;28;20064;-46
2022/05/30 01:14:43;;;;;;;6.20;3.47;;;8.80;70.20;;;9.42;55.04;97005.47;5026426;28;20061;-46
2022/05/30 01:17:16;;;;;;;;;;;8.80;70.20;;;9.37;54.99;97003.34;5028625;28;20381;-49
2022/05/30 01:20:27;;;;;;;3.50;2.43;;;8.80;72.00;;;9.33;55.33;97004.69;5028569;28;20220;-46
2022/05/30 01:23:16;;;;;;;3.13;2.20;;;8.80;71.50;;;9.28;55.61;96996.38;5017629;28;20057;-47
2022/05/30 01:26:22;;;;;;;4.00;2.40;;;8.60;72.00;;;9.24;55.73;97009.16;5026092;28;20063;-46
2022/05/30 01:29:08;;;;;;;4.40;2.00;;;8.60;73.00;;;9.23;55.88;96996.06;5025950;28;20056;-45
2022/05/30 01:31:38;;;;;;;2.87;2.20;;;8.60;72.60;;;9.22;55.72;96999.72;5027196;28;20068;-44
2022/05/30 01:34:06;;;;;;;4.20;2.47;;;8.60;73.00;;;9.18;55.88;97006.38;5028095;28;20045;-45
2022/05/30 01:36:34;;;;;;;3.17;2.07;;;8.50;72.70;;;9.15;55.98;96988.09;5026828;28;20045;-45
2022/05/30 01:39:04;;;;;;;3.50;2.53;;;8.50;72.80;;;9.13;56.09;96982.13;5025889;28;20046;-47
2022/05/30 01:41:44;;;;;;;3.13;2.20;;;8.50;72.50;;;9.10;56.21;96987.78;5026437;28;20259;-47
2022/05/30 01:44:14;;;;;;;6.53;2.33;;;8.50;72.80;;;9.04;56.36;96982.16;5027753;28;20054;-47
2022/05/30 01:46:42;;;;;;;7.13;2.77;;;8.40;73.00;;;9.02;56.16;96988.63;5026289;28;20061;-46
2022/05/30 01:49:11;;;;;;;3.10;2.30;;;8.40;72.90;;;9.00;56.49;96985.31;5028075;28;20075;-45
2022/05/30 01:51:40;;;;;;;3.70;2.27;;;8.40;73.00;;;9.01;56.37;96984.31;5024446;28;20053;-45
2022/05/30 01:54:09;;;;;;;3.23;2.23;;;8.30;73.30;;;8.96;56.54;96999.91;5026105;28;20060;-44
2022/05/30 01:57:16;;;;;;;3.23;2.20;;;8.30;73.50;;;8.95;56.45;96979.66;5006278;28;20061;-47
2022/05/30 02:00:07;;;;;;;4.93;2.20;;;8.30;73.40;;;8.90;56.42;96980.19;5004706;28;20383;-45
2022/05/30 02:02:44;;;;;;;4.90;3.10;;;8.20;73.50;;;8.86;56.94;96974.38;5021553;28;20045;-46
2022/05/30 02:05:12;;;;;;;2.73;2.10;;;8.20;73.80;;;8.83;56.82;96976.53;5026785;28;20061;-44
2022/05/30 02:07:40;;;;;;;3.40;2.40;;;8.20;74.10;;;8.76;57.03;96970.22;5025692;28;20057;-45
2022/05/30 02:10:09;;;;;;;4.67;2.67;;;8.10;74.50;;;8.73;56.90;96968.72;5025908;28;20068;-47
2022/05/30 02:12:40;;;;;;;4.23;2.60;;;8.10;74.60;;;8.69;57.26;96972.72;5009785;28;20063;-45
2022/05/30 02:15:28;;;;;;;6.03;2.47;;;8.00;74.80;;;8.66;57.42;96965.06;5026491;28;20049;-44
2022/05/30 02:18:00;;;;;;;4.47;2.60;;;8.00;75.10;;;8.66;57.29;96973.03;5026157;28;20057;-44
2022/05/30 02:20:28;;;;;;;2.83;2.23;;;8.00;75.20;;;8.63;57.18;96968.06;5024852;28;20064;-46
2022/05/30 02:22:58;;;;;;;4.57;2.47;;;8.00;75.20;;;8.62;57.54;96969.06;5025414;28;20053;-47
2022/05/30 02:25:25;;;;;;;5.47;2.10;;;8.00;75.20;;;8.59;57.20;96962.25;5025723;28;20055;-45
2022/05/30 02:27:53;;;;;;;5.40;2.77;;;8.00;75.40;;;8.57;57.46;96969.56;5025619;28;20352;-46
2022/05/30 02:30:21;;;;;;;4.07;3.13;;;8.00;75.30;;;8.52;57.47;96971.03;5023985;28;20058;-47
2022/05/30 02:36:38;;;;;;;5.23;2.60;;;7.90;75.40;;;8.40;57.94;96973.16;5024474;28;20068;-45
2022/05/30 02:38:23;;;;;;;3.97;2.53;;;7.70;77.80;;;8.41;57.96;96981.00;5026171;28;20056;-47
2022/05/30 02:41:11;;;;;;;4.57;2.60;;;7.80;77.20;;;8.45;58.18;96979.66;5027311;28;20050;-47
2022/05/30 02:43:57;;;;;;;2.93;2.37;;;7.90;77.00;;;8.42;57.60;96977.31;5024830;28;20057;-46
2022/05/30 02:46:25;;;;;;;5.63;2.27;;;7.80;76.80;;;8.41;57.88;96975.69;5042471;28;20083;-44
2022/05/30 02:48:53;;;;;;;4.37;2.20;;;7.80;76.20;;;8.41;57.61;96973.03;5026654;28;20167;-44
2022/05/30 02:51:22;;;;;;;4.60;2.63;;;7.80;76.20;;;8.43;57.72;96968.38;5025211;28;20061;-44
2022/05/30 02:53:51;;;;;;;4.40;2.90;;;7.90;76.10;;;8.39;58.09;96969.66;5026437;28;20373;-44
2022/05/30 02:56:24;;;;;;;5.50;2.40;;;7.80;76.30;;;8.36;57.99;96974.47;5027187;28;20052;-47
2022/05/30 02:58:52;;;;;;;3.70;2.30;;;7.70;77.00;;;8.32;58.34;96973.97;5025065;28;20061;-46
2022/05/30 03:01:21;;;;;;;5.33;2.97;;;7.70;77.20;;;8.33;58.65;96972.16;5024089;28;20056;-46
2022/05/30 03:03:49;;;;;;;3.03;2.10;;;7.70;77.10;;;8.32;58.70;96971.31;5024253;28;20051;-46
2022/05/30 03:06:17;;;;;;;3.57;2.37;;;7.70;77.20;;;8.32;58.00;96979.28;5018234;28;20058;-46
2022/05/30 03:08:45;;;;;;;5.80;2.90;;;7.70;77.30;;;8.31;58.08;96982.09;5007373;28;20536;-48
2022/05/30 03:11:13;;;;;;;6.23;2.67;;;7.70;77.60;;;8.29;58.47;96971.63;5004672;28;20060;-45
2022/05/30 03:13:41;;;;;;;3.97;2.73;;;7.60;77.30;;;8.23;58.13;96981.06;5004954;28;20243;-47
2022/05/30 03:16:10;;;;;;;5.10;2.73;;;7.60;77.50;;;8.14;58.79;96989.16;5004858;28;20056;-43
2022/05/30 03:18:42;;;;;;;4.33;2.70;;;7.50;78.00;;;8.11;58.63;96986.84;5005520;28;20364;-45
2022/05/30 03:21:11;;;;;;;5.33;2.70;;;7.50;78.70;;;8.08;58.35;96999.44;5005309;28;20371;-44
2022/05/30 03:23:41;;;;;;;4.87;2.70;;;7.50;79.10;;;8.06;59.10;96997.94;5006694;28;20052;-45
2022/05/30 03:26:20;;;;;;;4.20;2.40;;;7.50;79.20;;;8.07;59.00;96999.59;5004951;28;20056;-46
2022/05/30 03:29:14;;;;;;;5.40;2.60;;;7.50;78.70;;;8.06;58.55;97000.59;5005447;28;20386;-44
2022/05/30 03:31:45;;;;;;;4.10;2.57;;;7.50;79.20;;;8.03;58.95;97001.75;4989231;28;20063;-47
2022/05/30 03:34:13;;;;;;;4.43;3.50;;;7.40;78.40;;;8.04;58.97;97002.56;5004513;28;20577;-45
2022/05/30 03:36:42;;;;;;;3.50;2.47;;;7.50;78.70;;;8.02;58.96;97010.66;5004866;28;20064;-45
2022/05/30 03:39:45;;;;;;;5.00;2.60;;;7.40;78.40;;;7.99;58.91;97008.34;5013967;28;20046;-45
2022/05/30 03:42:48;;;;;;;4.60;2.50;;;7.40;78.70;;;7.98;58.55;97006.69;5043555;28;20232;-45
2022/05/30 03:45:23;;;;;;;6.22;2.97;;;7.40;79.00;;;7.92;59.22;97006.50;5008437;28;20068;-48
2022/05/30 03:47:51;;;;;;;3.87;2.60;;;7.30;78.90;;;7.89;58.86;97007.66;5005431;28;20050;-46
2022/05/30 03:50:24;;;;;;;5.23;2.67;;;7.30;79.40;;;7.85;59.09;97006.28;5004947;28;20472;-45
2022/05/30 03:53:05;;;;;;;3.20;2.53;;;7.20;80.00;;;7.82;59.92;97012.75;5004999;28;20053;-45
2022/05/30 03:55:40;;;;;;;4.50;2.80;;;7.20;81.20;;;7.84;59.85;97015.25;5004277;28;20050;-47
2022/05/30 03:58:09;;;;;;;;;;;7.30;81.40;;;7.84;59.96;97005.47;5003873;28;20058;-47
2022/05/30 04:00:40;;;;;;;4.47;2.97;;;7.30;82.60;;;7.91;59.53;97010.13;5004401;28;19925;-45
2022/05/30 04:03:09;;;;;;;3.50;2.60;;;7.30;80.90;;;7.94;59.10;97009.81;4987629;28;20068;-44
2022/05/30 04:05:37;;;;;;;3.30;2.30;;;7.40;80.60;;;7.96;59.29;97010.50;5007809;28;20062;-48
2022/05/30 04:08:05;;;;;;;4.70;2.77;;;7.40;80.30;;;7.97;59.57;97012.13;5006256;28;20050;-46
2022/05/30 04:11:00;;;;;;;7.05;2.83;;;7.40;80.70;;;7.92;59.76;97017.09;5006048;28;20053;-44
2022/05/30 04:14:03;;;;;;;4.43;2.90;;;7.30;81.40;;;7.85;59.58;97016.91;5032482;28;20049;-46
2022/05/30 04:16:34;;;;;;;7.33;2.80;;;7.20;82.00;;;7.87;60.05;97020.22;5015595;28;20056;-44
2022/05/30 04:19:07;;;;;;;4.57;2.90;;;7.30;81.60;;;7.89;59.61;97021.75;5007132;28;20763;-48
2022/05/30 04:21:35;;;;;;;6.00;4.17;;;7.30;81.50;;;7.90;59.96;97019.91;5009444;28;20558;-43
2022/05/30 04:24:05;;;;;;;5.73;4.77;;;7.30;81.00;;;7.92;59.48;97027.72;5010041;28;20067;-44
2022/05/30 04:26:40;;;;;;;5.47;4.33;;;7.40;80.40;;;7.97;59.65;97023.59;4992851;28;20076;-45
2022/05/30 04:29:08;;;;;;;5.17;3.63;;;7.50;79.90;;;8.03;59.77;97032.72;5009858;28;20064;-45
2022/05/30 04:32:09;;;;;;;5.47;3.20;;;7.60;79.50;;;8.09;59.35;97029.44;5018559;28;20050;-46
2022/05/30 04:34:38;;;;;;;8.43;4.83;;;7.60;79.20;;;8.09;59.74;97030.25;5006719;28;20056;-45
2022/05/30 04:37:06;;;;;;;4.27;3.13;;;7.60;79.20;;;8.10;59.66;97023.13;5007032;28;20064;-44
2022/05/30 04:39:36;;;;;;;4.80;3.13;;;7.60;79.20;;;8.15;59.93;97034.09;5008685;28;20364;-45
2022/05/30 04:42:39;;;;;;;6.53;3.20;;;7.70;78.80;;;8.22;59.36;97035.13;5023105;28;20356;-46
2022/05/30 04:45:26;;;;;;;4.97;3.20;;;7.80;78.10;;;8.28;59.47;97029.16;5008977;28;20060;-45
2022/05/30 04:48:07;;;;;;;5.67;3.40;;;7.90;77.60;;;8.35;59.16;97031.97;5006451;28;20065;-46
2022/05/30 04:50:35;;;;;;;3.90;3.27;;;7.90;77.00;;;8.38;58.92;97039.63;5007588;28;20218;-45
2022/05/30 04:53:03;;;;;;;3.73;2.90;;;8.00;76.80;;;8.44;59.06;97033.69;5007365;28;20249;-44
2022/05/30 04:55:54;;;;;;;5.03;2.70;;;8.10;76.70;;;8.51;59.06;97038.34;5008765;28;20053;-45
2022/05/30 04:58:37;;;;;;;5.40;3.00;;;8.10;76.30;;;8.50;59.01;97040.19;5006989;28;20368;-45
2022/05/30 05:01:10;;;;;;;4.43;3.00;;;8.10;76.20;;;8.56;59.13;97041.34;5006873;28;20060;-44
2022/05/30 05:03:42;;;;;;;4.03;3.20;;;8.20;76.60;;;8.63;59.27;97051.16;5007267;28;20344;-47
2022/05/30 05:06:15;;;;;;;7.00;3.70;;;8.30;77.60;;;8.69;59.90;97044.34;5007857;28;20241;-44
2022/05/30 05:08:55;;;;;;;4.10;3.27;;;8.40;78.40;;;8.72;59.76;97045.84;5007122;28;20068;-46
2022/05/30 05:11:37;;;;;;;4.63;3.63;;;8.40;78.80;;;8.70;60.00;97055.78;5014712;28;20060;-47
2022/05/30 05:14:17;;;;;;;4.67;2.77;;;8.30;79.70;;;8.67;60.30;97051.66;5012887;28;20064;-45
2022/05/30 05:16:45;;;;;;;4.27;3.47;;;8.30;80.30;;;8.69;60.46;97054.16;5007875;28;20214;-47
2022/05/30 05:19:13;;;;;;;5.87;2.97;;;8.30;80.00;;;8.64;60.41;97057.28;5006432;28;20058;-48
2022/05/30 05:21:45;;;;;;;4.90;3.50;;;8.20;80.00;;;8.63;60.32;97066.25;5008444;28;20052;-46
2022/05/30 05:24:16;;;;;;;5.27;3.30;;;8.20;80.10;;;8.64;60.49;97057.28;5009248;28;20053;-48
2022/05/30 05:27:02;;;;;;;3.73;3.00;;;8.20;80.70;;;8.64;60.49;97068.72;5009320;28;20366;-45
2022/05/30 05:29:30;;;;;;;5.97;3.23;;;8.20;80.50;;;8.71;60.19;97065.44;5006970;28;20059;-46
2022/05/30 05:31:59;;;;;;;4.13;3.53;;;8.30;80.00;;;8.74;60.39;97067.75;5005705;28;20053;-46
2022/05/30 05:34:26;;;;;;;5.87;3.83;;;8.30;79.80;;;8.79;60.22;97070.75;5006804;28;20058;-47
2022/05/30 05:36:54;;;;;;;6.40;5.30;;;8.40;79.30;;;8.74;60.76;97070.41;5005626;28;20362;-50
2022/05/30 05:39:24;;;;;;;7.00;3.70;;;8.30;79.60;;;8.74;60.40;97073.88;4990360;28;20056;-47
2022/05/30 05:41:57;;;;;;;6.20;3.83;;;8.30;79.70;;;8.70;60.52;97075.19;5006432;28;20049;-48
2022/05/30 05:44:26;;;;;;;6.03;3.40;;;8.30;80.20;;;8.77;60.58;97078.03;5006599;28;20058;-47
2022/05/30 05:46:58;;;;;;;4.03;3.10;;;8.40;80.00;;;8.86;60.88;97080.53;5007529;28;20109;-46
2022/05/30 05:49:31;;;;;;;6.80;3.90;;;8.50;79.40;;;8.84;60.73;97079.03;5006358;28;20061;-45
2022/05/30 05:51:59;;;;;;;5.17;3.30;;;8.50;79.00;;;8.93;60.37;97079.88;5007412;28;20058;-45
2022/05/30 05:54:27;;;;;;;5.70;3.33;;;8.60;78.50;;;8.99;60.37;97079.22;5005158;28;20093;-51
2022/05/30 05:56:59;;;;;;;4.67;3.23;;;8.70;78.20;;;9.08;60.20;97072.94;5005110;28;20052;-47
2022/05/30 05:59:39;;;;;;;5.50;3.47;;;8.80;78.00;;;9.12;60.35;97079.56;5000551;28;20354;-45
2022/05/30 06:02:07;;;;;;;6.23;3.23;;;8.80;77.90;;;9.16;59.77;97082.72;5005644;28;20068;-47
2022/05/30 06:04:38;;;;;;;4.30;3.27;;;8.90;76.30;;;9.20;59.73;97084.03;5022259;28;20046;-44
2022/05/30 06:07:25;;;;;;;6.50;3.17;;;8.90;76.10;;;9.29;59.40;97087.53;5006645;28;20060;-48
2022/05/30 06:10:04;;;;;;;5.33;3.40;;;9.00;74.30;;;9.32;59.20;97081.88;5022220;28;20072;-45
2022/05/30 06:12:42;;;;;;;7.13;3.75;;;9.00;74.60;;;9.31;59.21;97089.03;5006435;28;20068;-47
2022/05/30 06:15:14;;;;;;;5.30;2.97;;;9.00;74.30;;;9.34;59.02;97088.69;5005244;28;20338;-48
2022/05/30 06:17:52;;;;;;;3.50;3.07;;;9.10;73.70;;;9.41;58.72;97091.50;5022009;28;20065;-46
2022/05/30 06:20:20;;;;;;;3.67;3.30;;;9.10;73.10;;;9.49;58.82;97093.34;5004382;28;20062;-48
2022/05/30 06:22:48;;;;;;;6.00;3.30;;;9.30;73.10;;;9.56;59.08;97092.50;5022573;28;20050;-46
2022/05/30 06:25:37;;;;;;;4.73;3.30;;;9.30;73.50;;;9.61;59.13;97087.47;5006195;28;20103;-46
2022/05/30 06:28:23;;;;;;;4.63;3.40;;;9.40;74.30;;;9.64;59.29;97087.16;5011271;28;20259;-46
2022/05/30 06:31:17;;;;;;;8.47;3.57;;;9.50;74.70;;;9.67;59.86;97091.28;5006802;28;20060;-49
2022/05/30 06:33:49;;;;;;;3.40;3.07;;;9.50;75.60;;;9.71;59.91;97091.78;5006283;28;20058;-47
2022/05/30 06:36:34;;;;;;;6.60;4.37;;;9.50;76.30;;;9.78;60.18;97082.97;5005887;28;20060;-47
2022/05/30 06:39:03;;;;;;;6.30;3.70;;;9.60;76.90;;;9.83;60.42;97093.13;5005766;28;20053;-51
2022/05/30 06:41:36;;;;;;;6.70;4.03;;;9.70;76.50;;;9.91;60.22;97094.94;5005736;28;20064;-46
2022/05/30 06:44:09;;;;;;;5.20;3.22;;;9.80;75.90;;;9.93;60.07;97098.25;5005455;28;20050;-50
2022/05/30 06:46:51;;;;;;;5.20;3.50;;;9.90;75.30;;;10.00;59.63;97099.19;5011328;28;20056;-49
2022/05/30 06:49:38;;;;;;;5.43;4.27;;;9.90;74.70;;;9.98;60.04;97104.72;5009303;28;20386;-49
2022/05/30 06:52:08;;;;;;;5.17;3.73;;;9.80;75.00;;;9.99;60.05;97103.69;5021047;28;20374;-47
2022/05/30 06:54:36;;;;;;;4.63;3.73;;;9.80;75.50;;;9.95;60.22;97109.53;5004801;28;20355;-45
2022/05/30 06:59:51;;;;;;;5.43;3.30;;;9.90;75.90;;;10.13;60.30;97114.63;5006572;28;20079;-47
2022/05/30 07:02:19;;;;;;;4.50;3.93;;;10.00;75.80;;;10.19;60.19;97114.75;5021659;28;20054;-49
2022/05/30 07:05:06;;;;;;;4.83;3.73;;;10.10;75.60;;;10.32;59.63;97122.22;5007671;28;20052;-49
2022/05/30 07:07:56;;;;;;;5.30;4.63;;;10.20;74.90;;;10.40;60.17;97122.19;5011386;28;20067;-46
2022/05/30 07:10:35;;;;;;;8.00;4.27;;;10.40;74.80;;;10.45;60.12;97121.69;5005966;28;20061;-46
2022/05/30 07:13:12;;;;;;;5.23;4.17;;;10.40;75.50;;;10.49;60.45;97120.34;5006148;28;20050;-46
2022/05/30 07:15:48;;;;;;;6.10;4.37;;;10.40;75.60;;;10.54;60.34;97122.47;5005998;28;20050;-45
2022/05/30 07:18:29;;;;;;;6.57;4.77;;;10.50;76.10;;;10.67;60.49;97128.06;5004975;28;20054;-47
2022/05/30 07:21:00;;;;;;;4.93;3.90;;;10.70;75.80;;;10.77;60.49;97126.00;5003561;28;20054;-47
2022/05/30 07:23:29;;;;;;;5.10;4.07;;;10.80;75.60;;;10.83;60.51;97125.31;5006903;28;20053;-46
2022/05/30 07:26:36;;;;;;;4.93;3.97;;;10.90;75.20;;;10.95;60.51;97125.75;5023890;28;20049;-47
2022/05/30 07:29:08;;;;;;;7.93;4.43;;;11.00;75.30;;;11.04;60.70;97131.84;5025537;28;20348;-47
2022/05/30 07:32:03;;;;;;;7.13;4.50;;;11.10;75.50;;;11.12;60.23;97130.97;5013019;28;20377;-46
2022/05/30 07:34:50;;;;;;;5.77;4.70;;;11.20;75.00;;;11.17;60.41;97129.44;5009671;28;20056;-45
2022/05/30 07:37:42;;;;;;;6.87;4.33;;;11.20;74.80;;;11.27;59.74;97128.38;5007600;28;20061;-43
2022/05/30 07:40:30;;;;;;;4.47;4.00;;;11.30;73.70;;;11.31;59.63;97125.16;5004982;28;20378;-44
2022/05/30 07:43:10;;;;;;;10.00;4.03;;;11.30;73.50;;;11.39;59.23;97130.41;5003806;28;20058;-48
2022/05/30 07:46:09;;;;;;;5.63;4.83;;;11.40;73.20;;;11.47;59.50;97134.03;5015051;28;20057;-43
2022/05/30 07:48:55;;;;;;;8.63;4.10;;;11.50;72.00;;;11.57;58.73;97131.94;5011835;28;20045;-44
2022/05/30 07:51:23;;;;;;;5.97;3.97;;;11.60;71.80;;;11.63;58.96;97124.06;5008735;28;20054;-43
2022/05/30 07:53:58;;;;;;;5.60;3.75;;;11.70;71.20;;;11.69;58.26;97132.34;5007515;28;20062;-43
2022/05/30 07:56:40;;;;;;;4.70;4.17;;;11.70;70.90;;;11.69;58.91;97127.84;5007780;28;20360;-45
2022/05/30 07:59:08;;;;;;;7.20;3.93;;;11.70;71.60;;;11.74;58.33;97129.97;5009911;28;20061;-45
2022/05/30 08:01:36;;;;;;;6.37;4.03;;;11.80;71.00;;;11.73;58.46;97129.13;5021746;28;20051;-44
2022/05/30 08:04:05;;;;;;;6.43;3.97;;;11.80;70.60;;;11.75;58.38;97132.47;5035512;28;20055;-44
2022/05/30 08:06:35;;;;;;;4.90;3.47;;;11.70;70.50;;;11.80;58.89;97129.22;5037223;28;20255;-46
2022/05/30 08:09:22;;;;;;;6.75;3.65;;;11.80;70.90;;;11.90;58.74;97124.50;5038452;28;20059;-48
2022/05/30 08:12:08;;;;;;;5.83;3.57;;;11.90;70.50;;;12.00;58.64;97129.59;5031810;28;20063;-44
2022/05/30 08:14:55;;;;;;;4.63;3.20;;;12.10;70.50;;;12.08;58.06;97131.31;5041774;28;20063;-45
2022/05/30 08:17:32;;;;;;;4.50;3.53;;;12.10;69.60;;;12.12;57.49;97129.97;5032292;28;20042;-46
2022/05/30 08:20:02;;;;;;;8.10;3.45;;;12.20;68.50;;;12.15;57.63;97130.41;5046887;28;20052;-44
2022/05/30 08:22:36;;;;;;;4.45;3.42;;;12.20;67.80;;;12.20;57.20;97130.69;5053932;28;20374;-44
2022/05/30 08:25:15;;;;;;;5.50;3.83;;;12.30;67.70;;;12.23;56.79;97134.00;5054648;28;20047;-48
2022/05/30 08:27:48;;;;;;;4.65;3.55;;;12.30;67.10;;;12.24;56.59;97131.16;5039248;28;20239;-46
2022/05/30 08:30:23;;;;;;;8.55;3.55;;;12.30;66.70;;;12.31;56.48;97131.22;5040319;28;20251;-44
2022/05/30 08:33:24;;;;;;;4.05;2.80;;;12.40;66.20;;;12.39;55.89;97136.50;5039072;28;20067;-44
2022/05/30 08:36:13;;;;;;;3.75;2.72;;;12.50;65.30;;;12.47;55.23;97140.91;5043223;28;20056;-45
2022/05/30 08:38:42;;;;;;;3.55;2.38;;;12.60;64.00;;;12.55;54.45;97135.47;5038737;28;20051;-44
2022/05/30 08:44:09;;;;;;;3.75;2.67;;;12.70;63.00;;;12.62;53.62;97128.38;5023386;28;20053;-47
2022/05/30 08:47:24;;;;;;;5.47;2.65;;;12.70;62.30;;;12.64;52.89;97126.34;5038989;28;20062;-40
2022/05/30 08:49:58;;;;;;;5.22;2.17;;;12.70;57.80;;;12.67;52.76;97131.28;4998315;28;20057;-40
2022/05/30 08:52:50;;;;;;;4.28;2.20;;;12.70;60.50;;;12.72;51.72;97122.72;5010590;28;20050;-40
2022/05/30 08:55:22;;;;;;;4.45;3.08;;;12.80;57.50;;;12.79;51.61;97128.97;5007344;28;20046;-40
2022/05/30 08:58:26;;;;;;;3.42;2.58;;;12.90;59.50;;;12.86;52.58;97121.03;5007193;28;20053;-39
2022/05/30 09:01:01;;;;;;;5.85;2.63;;;12.90;60.00;;;12.91;51.96;97123.94;5022460;28;20240;-40
2022/05/30 09:04:34;;;;;;;7.43;2.88;;;13.00;57.50;;;12.93;52.00;97127.25;5046588;28;20298;-40
2022/05/30 09:07:16;;;;;;;3.55;2.50;;;13.00;58.30;;;12.99;52.31;97124.69;4993326;28;20056;-39
2022/05/30 09:10:01;;;;;;;4.97;2.70;;;13.10;59.60;;;13.07;51.16;97125.59;4990332;28;20229;-40
2022/05/30 09:13:06;;;;;;;3.75;2.22;;;13.20;58.60;;;13.14;51.12;97123.78;5008057;28;20382;-39
2022/05/30 09:16:03;;;;;;;4.35;2.60;;;13.30;56.80;;;13.23;51.28;97125.31;4994638;28;20067;-40
2022/05/30 09:18:44;;;;;;;4.07;2.58;;;13.30;57.50;;;13.29;51.06;97121.88;5006631;28;20394;-39
2022/05/30 09:21:15;;;;;;;3.63;2.47;;;13.40;57.90;;;13.35;50.32;97120.31;5007570;28;20046;-39
2022/05/30 09:23:47;;;;;;;4.25;3.22;;;13.50;57.00;;;13.36;49.86;97125.50;5023034;28;20373;-39
2022/05/30 09:26:42;;;;;;;4.38;2.80;;;13.50;56.60;;;13.42;48.16;97120.41;5024345;28;20229;-39
2022/05/30 09:29:31;;;;;;;3.92;2.58;;;13.50;54.20;;;13.51;47.90;97125.44;5008529;28;20053;-39
2022/05/30 09:32:45;;;;;;;4.15;2.30;;;13.70;55.00;;;13.62;49.08;97120.56;5036051;28;20044;-39
2022/05/30 09:35:34;;;;;;;2.90;2.45;;;13.80;54.30;;;13.67;48.41;97126.19;5036356;28;20056;-40
2022/05/30 09:38:45;;;;;;;3.78;2.33;;;13.80;54.20;;;13.72;48.09;97126.41;5035922;28;20049;-40
2022/05/30 09:41:39;;;;;;;3.28;2.17;;;13.80;53.50;;;13.72;48.71;97124.53;5036526;28;20051;-39
2022/05/30 09:44:19;;;;;;;2.95;2.22;;;13.90;53.90;;;13.73;47.32;97125.41;5031147;28;20064;-40
2022/05/30 09:47:07;;;;;;;3.10;2.10;;;13.90;52.00;;;13.85;47.24;97126.50;5038436;28;20331;-39
2022/05/30 09:49:55;;;;;;;3.45;2.10;;;14.00;53.30;;;13.90;45.48;97131.25;5038496;28;20254;-39
2022/05/30 09:52:33;;;;;;;4.00;2.00;;;14.10;51.10;;;13.97;46.10;97124.13;5035482;28;20054;-39
2022/05/30 09:55:41;;;;;;;2.53;1.75;;;14.20;49.90;;;14.05;45.26;97118.59;5035460;28;20381;-40
2022/05/30 09:58:15;;;;;;;1.63;1.50;;;14.30;46.50;;;14.12;44.23;97124.03;5035724;28;20236;-40
2022/05/30 10:01:25;;;;;;;3.22;2.10;;;14.30;48.50;;;14.20;43.40;97118.50;5022832;28;20415;-40
2022/05/30 10:04:16;;;;;;;3.92;2.30;;;14.40;44.90;;;14.20;40.98;97115.81;5019776;28;20055;-39
2022/05/30 10:07:15;;;;;;;3.78;1.77;;;14.40;43.20;;;14.24;43.17;97111.72;5036933;28;20232;-39
2022/05/30 10:10:50;;;;;;;4.70;2.50;;;14.40;46.30;;;14.34;41.12;97114.88;5035922;28;20049;-40
2022/05/30 10:13:37;;;;;;;4.60;2.03;;;14.60;46.80;;;14.46;40.98;97114.31;5034169;28;20046;-40
2022/05/30 10:16:35;;;;;;;3.55;1.70;;;14.70;42.20;;;14.57;42.19;97117.28;5036283;28;20045;-39
2022/05/30 10:19:09;;;;;;;3.33;2.15;;;14.90;44.70;;;14.65;42.75;97115.47;5035657;28;20049;-40
2022/05/30 10:29:41;;;;;;;3.72;1.92;;;15.30;43.50;;;15.11;38.76;97118.28;5036017;28;20049;-39
2022/05/30 10:33:02;;;;;;;2.92;1.70;;;15.50;42.50;;;15.26;40.93;97122.66;5031431;28;20057;-39
2022/05/30 10:36:10;;;;;;;2.72;2.03;;;15.60;44.30;;;15.26;38.17;97112.75;5022617;28;20057;-40
2022/05/30 10:39:05;;;;;;;3.85;2.05;;;15.70;40.70;;;15.29;38.01;97122.25;5034630;28;20044;-40
2022/05/30 10:42:15;;;;;;;2.95;1.80;;;15.60;39.40;;;15.32;36.45;97122.66;5020028;28;20050;-40
2022/05/30 10:44:50;;;;;;;4.43;2.20;;;15.70;34.70;;;15.36;38.31;97118.53;5022529;28;20045;-40
2022/05/30 10:47:45;;;;;;;2.50;1.88;;;15.70;41.40;;;15.43;35.55;97120.41;5038544;28;20041;-41
2022/05/30 10:50:43;;;;;;;2.97;1.90;;;15.80;41.90;;;15.45;37.10;97111.13;5034940;28;20057;-39
2022/05/30 10:54:01;;;;;;;3.13;2.10;;;15.90;38.10;;;15.52;36.99;97120.00;5037494;28;20049;-40
2022/05/30 10:56:52;;;;;;;3.00;1.90;;;15.90;36.30;;;15.63;37.07;97118.56;5050050;28;20374;-40
2022/05/30 10:59:47;;;;;;;2.55;1.67;;;16.00;38.10;;;15.71;38.10;97126.41;5037539;28;20051;-40
2022/05/30 11:02:42;;;;;;;5.95;2.55;;;16.20;38.40;;;15.84;33.80;97122.09;5038381;28;20045;-41
2022/05/30 11:05:23;;;;;;;3.00;1.60;;;16.30;35.10;;;15.95;36.89;97121.47;5036581;28;20053;-40
2022/05/30 11:08:09;;;;;;;2.08;1.60;;;16.40;34.80;;;16.03;36.38;97120.44;5037223;28;20045;-40
2022/05/30 11:10:47;;;;;;;3.75;1.85;;;16.50;38.10;;;16.09;35.30;97117.75;5036506;28;20322;-40
2022/05/30 11:13:40;;;;;;;2.15;1.80;;;16.50;35.00;;;16.11;36.09;97121.03;5051836;28;20049;-40
2022/05/30 11:16:51;;;;;;;2.47;1.77;;;16.50;35.90;;;16.22;35.99;97121.44;5052197;28;20251;-40
2022/05/30 11:19:55;;;;;;;5.82;2.20;;;16.70;38.00;;;16.36;36.02;97123.03;5043288;28;20243;-40
2022/05/30 11:22:54;;;;;;;2.22;2.03;;;16.90;35.30;;;16.56;35.51;97123.00;5037069;28;20049;-40
2022/05/30 11:25:40;;;;;;;2.42;2.22;;;17.20;34.30;;;16.67;34.22;97125.03;5035839;28;20047;-40
2022/05/30 11:28:14;;;;;;;2.45;1.30;;;17.40;34.90;;;16.72;32.90;97122.50;5038023;28;20063;-40
2022/05/30 11:30:57;;;;;;;2.70;1.52;;;17.30;32.30;;;16.80;33.75;97132.19;5037847;28;20062;-40
2022/05/30 11:33:34;;;;;;;1.95;1.67;;;17.30;33.50;;;16.85;32.99;97124.38;5033819;28;20058;-40
2022/05/30 11:36:11;;;;;;;1.45;1.30;;;17.30;34.30;;;16.93;33.80;97129.50;5037998;28;20359;-40
2022/05/30 11:39:18;;;;;;;5.32;1.65;;;17.40;34.60;;;17.01;31.43;97127.59;5036896;28;20059;-40